sensor_id;sensor_type;location;lat;lon;timestamp;P1;durP1;ratioP1;P2;durP2;ratioP2
21438;SDS011;10880;50.302;18.736;2023-08-31T00:01:19;1.60;;;1.50;;
21438;SDS011;10880;50.302;18.736;2023-08-31T00:03:45;1.70;;;1.60;;
21438;SDS011;10880;50.302;18.736;2023-08-31T00:06:11;1.60;;;1.50;;
21438;SDS011;10880;50.302;18.736;2023-08-31T00:08:38;1.70;;;1.60;;
21438;SDS011;10880;50.302;18.736;2023-08-31T00:11:04;1.50;;;1.40;;
21438;SDS011;10880;50.302;18.736;2023-08-31T00:13:31;1.60;;;1.50;;
21438;SDS011;10880;50.302;18.736;2023-08-31T00:15:57;1.63;;;1.53;;
21438;SDS011;10880;50.302;18.736;2023-08-31T00:18:25;1.53;;;1.43;;
21438;SDS011;10880;50.302;18.736;2023-08-31T00:20:52;1.60;;;1.50;;
21438;SDS011;10880;50.302;18.736;2023-08-31T00:23:18;1.80;;;1.70;;
21438;SDS011;10880;50.302;18.736;2023-08-31T00:25:46;1.63;;;1.53;;
21438;SDS011;10880;50.302;18.736;2023-08-31T00:28:15;1.50;;;1.40;;
21438;SDS011;10880;50.302;18.736;2023-08-31T00:30:44;1.63;;;1.53;;
21438;SDS011;10880;50.302;18.736;2023-08-31T00:33:12;1.90;;;1.60;;
21438;SDS011;10880;50.302;18.736;2023-08-31T00:35:39;1.73;;;1.63;;
21438;SDS011;10880;50.302;18.736;2023-08-31T00:38:11;1.77;;;1.67;;
21438;SDS011;10880;50.302;18.736;2023-08-31T00:40:40;2.00;;;1.73;;
21438;SDS011;10880;50.302;18.736;2023-08-31T00:43:10;1.70;;;1.60;;
21438;SDS011;10880;50.302;18.736;2023-08-31T00:45:39;1.67;;;1.57;;
21438;SDS011;10880;50.302;18.736;2023-08-31T00:48:06;1.50;;;1.40;;
21438;SDS011;10880;50.302;18.736;2023-08-31T00:50:33;1.77;;;1.67;;
21438;SDS011;10880;50.302;18.736;2023-08-31T00:53:01;2.13;;;1.67;;
21438;SDS011;10880;50.302;18.736;2023-08-31T00:55:31;1.80;;;1.70;;
21438;SDS011;10880;50.302;18.736;2023-08-31T00:57:59;1.60;;;1.50;;
21438;SDS011;10880;50.302;18.736;2023-08-31T01:00:29;1.63;;;1.53;;
21438;SDS011;10880;50.302;18.736;2023-08-31T01:03:13;2.37;;;1.70;;
21438;SDS011;10880;50.302;18.736;2023-08-31T01:06:15;1.60;;;1.50;;
21438;SDS011;10880;50.302;18.736;2023-08-31T01:08:56;1.80;;;1.70;;
21438;SDS011;10880;50.302;18.736;2023-08-31T01:11:29;1.80;;;1.70;;
21438;SDS011;10880;50.302;18.736;2023-08-31T01:14:07;1.73;;;1.63;;
21438;SDS011;10880;50.302;18.736;2023-08-31T01:16:38;1.80;;;1.70;;
21438;SDS011;10880;50.302;18.736;2023-08-31T01:19:12;1.90;;;1.80;;
21438;SDS011;10880;50.302;18.736;2023-08-31T01:22:01;1.50;;;1.40;;
21438;SDS011;10880;50.302;18.736;2023-08-31T01:24:35;1.70;;;1.60;;
21438;SDS011;10880;50.302;18.736;2023-08-31T01:27:03;1.80;;;1.70;;
21438;SDS011;10880;50.302;18.736;2023-08-31T01:29:30;1.70;;;1.60;;
21438;SDS011;10880;50.302;18.736;2023-08-31T01:31:57;1.70;;;1.60;;
21438;SDS011;10880;50.302;18.736;2023-08-31T01:34:23;1.70;;;1.60;;
21438;SDS011;10880;50.302;18.736;2023-08-31T01:36:52;1.77;;;1.67;;
21438;SDS011;10880;50.302;18.736;2023-08-31T01:39:26;1.70;;;1.60;;
21438;SDS011;10880;50.302;18.736;2023-08-31T01:42:02;1.73;;;1.63;;
21438;SDS011;10880;50.302;18.736;2023-08-31T01:44:32;1.80;;;1.70;;
21438;SDS011;10880;50.302;18.736;2023-08-31T01:47:04;1.50;;;1.40;;
21438;SDS011;10880;50.302;18.736;2023-08-31T01:49:38;1.80;;;1.70;;
21438;SDS011;10880;50.302;18.736;2023-08-31T01:52:05;1.70;;;1.60;;
21438;SDS011;10880;50.302;18.736;2023-08-31T01:54:32;1.67;;;1.57;;
21438;SDS011;10880;50.302;18.736;2023-08-31T01:56:59;1.77;;;1.40;;
21438;SDS011;10880;50.302;18.736;2023-08-31T01:59:28;1.60;;;1.50;;
21438;SDS011;10880;50.302;18.736;2023-08-31T02:01:55;2.20;;;1.60;;
21438;SDS011;10880;50.302;18.736;2023-08-31T02:04:22;3.20;;;1.53;;
21438;SDS011;10880;50.302;18.736;2023-08-31T02:06:48;1.80;;;1.70;;
21438;SDS011;10880;50.302;18.736;2023-08-31T02:09:15;1.90;;;1.80;;
21438;SDS011;10880;50.302;18.736;2023-08-31T02:11:42;1.70;;;1.60;;
21438;SDS011;10880;50.302;18.736;2023-08-31T02:14:09;2.00;;;1.90;;
21438;SDS011;10880;50.302;18.736;2023-08-31T02:16:36;1.50;;;1.40;;
21438;SDS011;10880;50.302;18.736;2023-08-31T02:19:02;1.70;;;1.60;;
21438;SDS011;10880;50.302;18.736;2023-08-31T02:21:31;1.60;;;1.50;;
21438;SDS011;10880;50.302;18.736;2023-08-31T02:23:58;1.77;;;1.67;;
21438;SDS011;10880;50.302;18.736;2023-08-31T02:26:27;1.70;;;1.60;;
21438;SDS011;10880;50.302;18.736;2023-08-31T02:28:55;2.00;;;1.90;;
21438;SDS011;10880;50.302;18.736;2023-08-31T02:31:23;3.10;;;2.70;;
21438;SDS011;10880;50.302;18.736;2023-08-31T02:33:49;2.63;;;2.40;;
21438;SDS011;10880;50.302;18.736;2023-08-31T02:36:16;2.77;;;2.57;;
21438;SDS011;10880;50.302;18.736;2023-08-31T02:38:43;2.40;;;2.20;;
21438;SDS011;10880;50.302;18.736;2023-08-31T02:41:09;2.30;;;2.00;;
21438;SDS011;10880;50.302;18.736;2023-08-31T02:43:36;2.30;;;2.10;;
21438;SDS011;10880;50.302;18.736;2023-08-31T02:46:03;2.00;;;1.90;;
21438;SDS011;10880;50.302;18.736;2023-08-31T02:48:29;1.70;;;1.60;;
21438;SDS011;10880;50.302;18.736;2023-08-31T02:50:58;1.80;;;1.70;;
21438;SDS011;10880;50.302;18.736;2023-08-31T02:53:29;1.83;;;1.73;;
21438;SDS011;10880;50.302;18.736;2023-08-31T02:55:56;1.80;;;1.70;;
21438;SDS011;10880;50.302;18.736;2023-08-31T02:58:22;1.70;;;1.60;;
21438;SDS011;10880;50.302;18.736;2023-08-31T03:00:49;1.93;;;1.70;;
21438;SDS011;10880;50.302;18.736;2023-08-31T03:03:16;2.23;;;2.03;;
21438;SDS011;10880;50.302;18.736;2023-08-31T03:05:43;1.87;;;1.77;;
21438;SDS011;10880;50.302;18.736;2023-08-31T03:08:10;1.80;;;1.70;;
21438;SDS011;10880;50.302;18.736;2023-08-31T03:10:37;2.10;;;1.87;;
21438;SDS011;10880;50.302;18.736;2023-08-31T03:13:04;1.87;;;1.77;;
21438;SDS011;10880;50.302;18.736;2023-08-31T03:15:34;2.00;;;1.80;;
21438;SDS011;10880;50.302;18.736;2023-08-31T03:18:00;1.73;;;1.63;;
21438;SDS011;10880;50.302;18.736;2023-08-31T03:20:27;1.90;;;1.80;;
21438;SDS011;10880;50.302;18.736;2023-08-31T03:22:54;2.07;;;1.80;;
21438;SDS011;10880;50.302;18.736;2023-08-31T03:25:23;1.80;;;1.70;;
21438;SDS011;10880;50.302;18.736;2023-08-31T03:27:50;1.83;;;1.73;;
21438;SDS011;10880;50.302;18.736;2023-08-31T03:30:16;1.90;;;1.80;;
21438;SDS011;10880;50.302;18.736;2023-08-31T03:32:43;1.50;;;1.40;;
21438;SDS011;10880;50.302;18.736;2023-08-31T03:35:09;1.80;;;1.70;;
21438;SDS011;10880;50.302;18.736;2023-08-31T03:37:36;1.90;;;1.80;;
21438;SDS011;10880;50.302;18.736;2023-08-31T03:40:02;1.60;;;1.50;;
21438;SDS011;10880;50.302;18.736;2023-08-31T03:42:32;1.60;;;1.50;;
21438;SDS011;10880;50.302;18.736;2023-08-31T03:45:00;1.80;;;1.70;;
21438;SDS011;10880;50.302;18.736;2023-08-31T03:47:27;1.70;;;1.60;;
21438;SDS011;10880;50.302;18.736;2023-08-31T03:49:53;1.60;;;1.50;;
21438;SDS011;10880;50.302;18.736;2023-08-31T03:52:19;1.63;;;1.53;;
21438;SDS011;10880;50.302;18.736;2023-08-31T03:54:48;1.67;;;1.57;;
21438;SDS011;10880;50.302;18.736;2023-08-31T03:57:15;1.63;;;1.50;;
21438;SDS011;10880;50.302;18.736;2023-08-31T03:59:41;1.80;;;1.70;;
21438;SDS011;10880;50.302;18.736;2023-08-31T04:02:08;1.53;;;1.43;;
21438;SDS011;10880;50.302;18.736;2023-08-31T04:04:37;1.60;;;1.50;;
21438;SDS011;10880;50.302;18.736;2023-08-31T04:07:03;1.70;;;1.60;;
21438;SDS011;10880;50.302;18.736;2023-08-31T04:09:32;1.60;;;1.50;;
21438;SDS011;10880;50.302;18.736;2023-08-31T04:11:59;2.00;;;1.70;;
21438;SDS011;10880;50.302;18.736;2023-08-31T04:14:26;1.80;;;1.70;;
21438;SDS011;10880;50.302;18.736;2023-08-31T04:16:56;1.60;;;1.50;;
21438;SDS011;10880;50.302;18.736;2023-08-31T04:19:25;1.70;;;1.60;;
21438;SDS011;10880;50.302;18.736;2023-08-31T04:21:52;1.60;;;1.50;;
21438;SDS011;10880;50.302;18.736;2023-08-31T04:24:18;1.70;;;1.60;;
21438;SDS011;10880;50.302;18.736;2023-08-31T04:26:45;1.70;;;1.60;;
21438;SDS011;10880;50.302;18.736;2023-08-31T04:29:13;1.47;;;1.40;;
21438;SDS011;10880;50.302;18.736;2023-08-31T04:31:40;1.90;;;1.70;;
21438;SDS011;10880;50.302;18.736;2023-08-31T04:34:06;1.70;;;1.60;;
21438;SDS011;10880;50.302;18.736;2023-08-31T04:36:33;2.60;;;1.70;;
21438;SDS011;10880;50.302;18.736;2023-08-31T04:39:00;1.50;;;1.40;;
21438;SDS011;10880;50.302;18.736;2023-08-31T04:41:30;1.70;;;1.60;;
21438;SDS011;10880;50.302;18.736;2023-08-31T04:43:56;1.60;;;1.50;;
21438;SDS011;10880;50.302;18.736;2023-08-31T04:46:23;1.60;;;1.50;;
21438;SDS011;10880;50.302;18.736;2023-08-31T04:48:50;1.50;;;1.40;;
21438;SDS011;10880;50.302;18.736;2023-08-31T04:51:37;1.40;;;1.40;;
21438;SDS011;10880;50.302;18.736;2023-08-31T04:54:05;1.40;;;1.30;;
21438;SDS011;10880;50.302;18.736;2023-08-31T04:56:32;1.70;;;1.60;;
21438;SDS011;10880;50.302;18.736;2023-08-31T04:58:59;1.70;;;1.60;;
21438;SDS011;10880;50.302;18.736;2023-08-31T05:01:26;1.90;;;1.60;;
21438;SDS011;10880;50.302;18.736;2023-08-31T05:03:53;1.70;;;1.60;;
21438;SDS011;10880;50.302;18.736;2023-08-31T05:06:20;1.80;;;1.70;;
21438;SDS011;10880;50.302;18.736;2023-08-31T05:08:49;1.80;;;1.70;;
21438;SDS011;10880;50.302;18.736;2023-08-31T05:11:15;1.60;;;1.50;;
21438;SDS011;10880;50.302;18.736;2023-08-31T05:13:44;2.20;;;2.00;;
21438;SDS011;10880;50.302;18.736;2023-08-31T05:16:10;2.10;;;1.90;;
21438;SDS011;10880;50.302;18.736;2023-08-31T05:18:37;2.00;;;1.90;;
21438;SDS011;10880;50.302;18.736;2023-08-31T05:21:06;1.97;;;1.87;;
21438;SDS011;10880;50.302;18.736;2023-08-31T05:23:34;1.73;;;1.63;;
21438;SDS011;10880;50.302;18.736;2023-08-31T05:26:00;2.03;;;1.93;;
21438;SDS011;10880;50.302;18.736;2023-08-31T05:28:27;2.17;;;1.97;;
21438;SDS011;10880;50.302;18.736;2023-08-31T05:30:55;2.37;;;2.17;;
21438;SDS011;10880;50.302;18.736;2023-08-31T05:33:23;2.53;;;2.33;;
21438;SDS011;10880;50.302;18.736;2023-08-31T05:35:54;2.63;;;2.43;;
21438;SDS011;10880;50.302;18.736;2023-08-31T05:38:21;2.27;;;2.07;;
21438;SDS011;10880;50.302;18.736;2023-08-31T05:40:49;2.50;;;2.30;;
21438;SDS011;10880;50.302;18.736;2023-08-31T05:43:17;2.00;;;1.90;;
21438;SDS011;10880;50.302;18.736;2023-08-31T05:45:43;3.37;;;2.97;;
21438;SDS011;10880;50.302;18.736;2023-08-31T05:48:13;2.90;;;2.60;;
21438;SDS011;10880;50.302;18.736;2023-08-31T05:50:40;2.53;;;2.33;;
21438;SDS011;10880;50.302;18.736;2023-08-31T05:53:09;2.43;;;2.23;;
21438;SDS011;10880;50.302;18.736;2023-08-31T05:55:36;2.50;;;2.30;;
21438;SDS011;10880;50.302;18.736;2023-08-31T05:58:02;2.97;;;2.67;;
21438;SDS011;10880;50.302;18.736;2023-08-31T06:00:29;2.70;;;2.50;;
21438;SDS011;10880;50.302;18.736;2023-08-31T06:02:56;2.03;;;1.93;;
21438;SDS011;10880;50.302;18.736;2023-08-31T06:05:23;2.00;;;1.80;;
21438;SDS011;10880;50.302;18.736;2023-08-31T06:07:50;1.97;;;1.77;;
21438;SDS011;10880;50.302;18.736;2023-08-31T06:10:18;2.13;;;1.70;;
21438;SDS011;10880;50.302;18.736;2023-08-31T06:12:45;1.63;;;1.53;;
21438;SDS011;10880;50.302;18.736;2023-08-31T06:15:11;1.70;;;1.60;;
21438;SDS011;10880;50.302;18.736;2023-08-31T06:17:43;1.90;;;1.80;;
21438;SDS011;10880;50.302;18.736;2023-08-31T06:20:10;3.60;;;2.37;;
21438;SDS011;10880;50.302;18.736;2023-08-31T06:22:42;2.10;;;1.90;;
21438;SDS011;10880;50.302;18.736;2023-08-31T06:25:09;2.33;;;2.13;;
21438;SDS011;10880;50.302;18.736;2023-08-31T06:27:39;1.90;;;1.80;;
21438;SDS011;10880;50.302;18.736;2023-08-31T06:30:06;2.00;;;1.90;;
21438;SDS011;10880;50.302;18.736;2023-08-31T06:32:34;2.30;;;2.00;;
21438;SDS011;10880;50.302;18.736;2023-08-31T06:35:00;3.03;;;2.47;;
21438;SDS011;10880;50.302;18.736;2023-08-31T06:37:27;2.07;;;1.90;;
21438;SDS011;10880;50.302;18.736;2023-08-31T06:39:54;2.30;;;2.10;;
21438;SDS011;10880;50.302;18.736;2023-08-31T06:42:21;4.10;;;3.27;;
21438;SDS011;10880;50.302;18.736;2023-08-31T06:44:48;3.73;;;2.90;;
21438;SDS011;10880;50.302;18.736;2023-08-31T06:47:14;3.70;;;2.87;;
21438;SDS011;10880;50.302;18.736;2023-08-31T06:49:44;2.43;;;2.20;;
21438;SDS011;10880;50.302;18.736;2023-08-31T06:52:10;2.90;;;2.57;;
21438;SDS011;10880;50.302;18.736;2023-08-31T06:54:37;3.07;;;2.30;;
21438;SDS011;10880;50.302;18.736;2023-08-31T06:57:04;3.67;;;2.60;;
21438;SDS011;10880;50.302;18.736;2023-08-31T06:59:30;2.87;;;2.50;;
21438;SDS011;10880;50.302;18.736;2023-08-31T07:01:57;2.13;;;1.93;;
21438;SDS011;10880;50.302;18.736;2023-08-31T07:04:23;2.60;;;2.00;;
21438;SDS011;10880;50.302;18.736;2023-08-31T07:06:50;3.23;;;2.10;;
21438;SDS011;10880;50.302;18.736;2023-08-31T07:09:17;3.47;;;2.23;;
21438;SDS011;10880;50.302;18.736;2023-08-31T07:11:44;1.97;;;1.60;;
21438;SDS011;10880;50.302;18.736;2023-08-31T07:14:10;3.23;;;1.70;;
21438;SDS011;10880;50.302;18.736;2023-08-31T07:16:37;1.70;;;1.60;;
21438;SDS011;10880;50.302;18.736;2023-08-31T07:19:03;2.00;;;1.70;;
21438;SDS011;10880;50.302;18.736;2023-08-31T07:21:29;2.27;;;1.77;;
21438;SDS011;10880;50.302;18.736;2023-08-31T07:23:56;2.37;;;1.93;;
21438;SDS011;10880;50.302;18.736;2023-08-31T07:26:23;3.33;;;2.70;;
21438;SDS011;10880;50.302;18.736;2023-08-31T07:28:49;2.00;;;1.80;;
21438;SDS011;10880;50.302;18.736;2023-08-31T07:31:16;1.70;;;1.60;;
21438;SDS011;10880;50.302;18.736;2023-08-31T07:33:42;1.60;;;1.50;;
21438;SDS011;10880;50.302;18.736;2023-08-31T07:36:09;1.70;;;1.60;;
21438;SDS011;10880;50.302;18.736;2023-08-31T07:38:35;1.70;;;1.60;;
21438;SDS011;10880;50.302;18.736;2023-08-31T07:41:03;2.23;;;1.50;;
21438;SDS011;10880;50.302;18.736;2023-08-31T07:43:30;1.47;;;1.37;;
21438;SDS011;10880;50.302;18.736;2023-08-31T07:45:57;1.50;;;1.40;;
21438;SDS011;10880;50.302;18.736;2023-08-31T07:48:24;3.17;;;2.47;;
21438;SDS011;10880;50.302;18.736;2023-08-31T07:50:51;2.20;;;2.00;;
21438;SDS011;10880;50.302;18.736;2023-08-31T07:53:18;1.90;;;1.80;;
21438;SDS011;10880;50.302;18.736;2023-08-31T07:55:54;1.80;;;1.53;;
21438;SDS011;10880;50.302;18.736;2023-08-31T07:58:22;2.50;;;1.83;;
21438;SDS011;10880;50.302;18.736;2023-08-31T08:00:52;2.83;;;1.60;;
21438;SDS011;10880;50.302;18.736;2023-08-31T08:03:21;1.97;;;1.70;;
21438;SDS011;10880;50.302;18.736;2023-08-31T08:05:48;1.50;;;1.40;;
21438;SDS011;10880;50.302;18.736;2023-08-31T08:08:17;2.10;;;1.90;;
21438;SDS011;10880;50.302;18.736;2023-08-31T08:10:51;2.97;;;2.23;;
21438;SDS011;10880;50.302;18.736;2023-08-31T08:13:21;3.73;;;2.27;;
21438;SDS011;10880;50.302;18.736;2023-08-31T08:15:48;2.30;;;1.77;;
21438;SDS011;10880;50.302;18.736;2023-08-31T08:18:19;1.80;;;1.60;;
21438;SDS011;10880;50.302;18.736;2023-08-31T08:20:51;1.63;;;1.53;;
21438;SDS011;10880;50.302;18.736;2023-08-31T08:23:19;2.30;;;1.40;;
21438;SDS011;10880;50.302;18.736;2023-08-31T08:25:47;1.90;;;1.50;;
21438;SDS011;10880;50.302;18.736;2023-08-31T08:28:14;2.00;;;1.80;;
21438;SDS011;10880;50.302;18.736;2023-08-31T08:30:40;1.60;;;1.50;;
21438;SDS011;10880;50.302;18.736;2023-08-31T08:33:08;1.63;;;1.40;;
21438;SDS011;10880;50.302;18.736;2023-08-31T08:35:37;1.50;;;1.40;;
21438;SDS011;10880;50.302;18.736;2023-08-31T08:38:04;1.97;;;1.70;;
21438;SDS011;10880;50.302;18.736;2023-08-31T08:40:33;1.40;;;1.30;;
21438;SDS011;10880;50.302;18.736;2023-08-31T08:43:01;1.20;;;1.20;;
21438;SDS011;10880;50.302;18.736;2023-08-31T08:45:36;1.60;;;1.43;;
21438;SDS011;10880;50.302;18.736;2023-08-31T08:48:08;1.33;;;1.30;;
21438;SDS011;10880;50.302;18.736;2023-08-31T08:50:36;1.53;;;1.43;;
21438;SDS011;10880;50.302;18.736;2023-08-31T08:53:03;2.27;;;2.07;;
21438;SDS011;10880;50.302;18.736;2023-08-31T08:55:30;2.90;;;2.03;;
21438;SDS011;10880;50.302;18.736;2023-08-31T08:57:59;1.90;;;1.73;;
21438;SDS011;10880;50.302;18.736;2023-08-31T09:00:26;2.13;;;1.80;;
21438;SDS011;10880;50.302;18.736;2023-08-31T09:02:56;1.80;;;1.70;;
21438;SDS011;10880;50.302;18.736;2023-08-31T09:05:24;1.63;;;1.53;;
21438;SDS011;10880;50.302;18.736;2023-08-31T09:08:00;1.60;;;1.50;;
21438;SDS011;10880;50.302;18.736;2023-08-31T09:10:33;1.30;;;1.20;;
21438;SDS011;10880;50.302;18.736;2023-08-31T09:13:04;1.50;;;1.40;;
21438;SDS011;10880;50.302;18.736;2023-08-31T09:15:36;1.70;;;1.60;;
21438;SDS011;10880;50.302;18.736;2023-08-31T09:18:14;2.00;;;1.90;;
21438;SDS011;10880;50.302;18.736;2023-08-31T09:20:51;1.87;;;1.60;;
21438;SDS011;10880;50.302;18.736;2023-08-31T09:23:18;2.10;;;1.90;;
21438;SDS011;10880;50.302;18.736;2023-08-31T09:25:46;1.67;;;1.57;;
21438;SDS011;10880;50.302;18.736;2023-08-31T09:28:19;1.60;;;1.50;;
21438;SDS011;10880;50.302;18.736;2023-08-31T09:30:49;1.27;;;1.27;;
21438;SDS011;10880;50.302;18.736;2023-08-31T09:33:18;1.23;;;1.23;;
21438;SDS011;10880;50.302;18.736;2023-08-31T09:35:52;1.50;;;1.40;;
21438;SDS011;10880;50.302;18.736;2023-08-31T09:38:21;1.50;;;1.40;;
21438;SDS011;10880;50.302;18.736;2023-08-31T09:40:48;2.20;;;2.00;;
21438;SDS011;10880;50.302;18.736;2023-08-31T09:43:18;2.20;;;2.00;;
21438;SDS011;10880;50.302;18.736;2023-08-31T09:45:47;1.80;;;1.70;;
21438;SDS011;10880;50.302;18.736;2023-08-31T09:48:14;1.60;;;1.50;;
21438;SDS011;10880;50.302;18.736;2023-08-31T09:50:45;1.20;;;1.20;;
21438;SDS011;10880;50.302;18.736;2023-08-31T09:53:12;1.20;;;1.20;;
21438;SDS011;10880;50.302;18.736;2023-08-31T09:55:39;1.60;;;1.50;;
21438;SDS011;10880;50.302;18.736;2023-08-31T09:58:07;1.40;;;1.30;;
21438;SDS011;10880;50.302;18.736;2023-08-31T10:00:35;1.33;;;1.23;;
21438;SDS011;10880;50.302;18.736;2023-08-31T10:03:03;1.10;;;1.10;;
21438;SDS011;10880;50.302;18.736;2023-08-31T10:05:31;1.30;;;1.20;;
21438;SDS011;10880;50.302;18.736;2023-08-31T10:07:58;1.10;;;1.10;;
21438;SDS011;10880;50.302;18.736;2023-08-31T10:10:27;1.47;;;1.37;;
21438;SDS011;10880;50.302;18.736;2023-08-31T10:12:56;1.10;;;1.10;;
21438;SDS011;10880;50.302;18.736;2023-08-31T10:15:22;1.30;;;1.20;;
21438;SDS011;10880;50.302;18.736;2023-08-31T10:17:49;1.87;;;1.77;;
21438;SDS011;10880;50.302;18.736;2023-08-31T10:20:16;2.03;;;1.77;;
21438;SDS011;10880;50.302;18.736;2023-08-31T10:22:43;2.67;;;1.70;;
21438;SDS011;10880;50.302;18.736;2023-08-31T10:25:10;1.50;;;1.40;;
21438;SDS011;10880;50.302;18.736;2023-08-31T10:27:41;1.70;;;1.60;;
21438;SDS011;10880;50.302;18.736;2023-08-31T10:30:24;2.00;;;1.80;;
21438;SDS011;10880;50.302;18.736;2023-08-31T10:35:52;1.70;;;1.57;;
21438;SDS011;10880;50.302;18.736;2023-08-31T10:38:31;2.50;;;1.90;;
21438;SDS011;10880;50.302;18.736;2023-08-31T10:41:03;2.93;;;2.50;;
21438;SDS011;10880;50.302;18.736;2023-08-31T10:49:57;1.80;;;1.70;;
21438;SDS011;10880;50.302;18.736;2023-08-31T10:52:50;3.20;;;2.40;;
21438;SDS011;10880;50.302;18.736;2023-08-31T10:55:17;2.03;;;1.83;;
21438;SDS011;10880;50.302;18.736;2023-08-31T10:57:43;1.57;;;1.47;;
21438;SDS011;10880;50.302;18.736;2023-08-31T11:00:11;1.50;;;1.40;;
21438;SDS011;10880;50.302;18.736;2023-08-31T11:02:46;1.30;;;1.20;;
21438;SDS011;10880;50.302;18.736;2023-08-31T11:05:16;1.90;;;1.80;;
21438;SDS011;10880;50.302;18.736;2023-08-31T11:07:47;2.10;;;1.90;;
21438;SDS011;10880;50.302;18.736;2023-08-31T11:10:19;1.97;;;1.87;;
21438;SDS011;10880;50.302;18.736;2023-08-31T11:12:47;2.07;;;1.87;;
21438;SDS011;10880;50.302;18.736;2023-08-31T11:15:16;1.70;;;1.60;;
21438;SDS011;10880;50.302;18.736;2023-08-31T11:17:45;3.53;;;2.10;;
21438;SDS011;10880;50.302;18.736;2023-08-31T11:20:15;2.57;;;2.00;;
21438;SDS011;10880;50.302;18.736;2023-08-31T11:22:44;2.50;;;2.00;;
21438;SDS011;10880;50.302;18.736;2023-08-31T11:25:13;2.00;;;1.60;;
21438;SDS011;10880;50.302;18.736;2023-08-31T11:27:39;1.70;;;1.60;;
21438;SDS011;10880;50.302;18.736;2023-08-31T11:30:15;1.50;;;1.40;;
21438;SDS011;10880;50.302;18.736;2023-08-31T11:32:45;1.70;;;1.60;;
21438;SDS011;10880;50.302;18.736;2023-08-31T11:35:18;1.50;;;1.40;;
21438;SDS011;10880;50.302;18.736;2023-08-31T11:38:30;1.20;;;1.20;;
21438;SDS011;10880;50.302;18.736;2023-08-31T11:44:20;1.80;;;1.70;;
21438;SDS011;10880;50.302;18.736;2023-08-31T11:46:47;1.80;;;1.70;;
21438;SDS011;10880;50.302;18.736;2023-08-31T11:49:16;1.43;;;1.33;;
21438;SDS011;10880;50.302;18.736;2023-08-31T11:51:44;1.50;;;1.40;;
21438;SDS011;10880;50.302;18.736;2023-08-31T11:54:14;1.40;;;1.30;;
21438;SDS011;10880;50.302;18.736;2023-08-31T11:56:43;1.30;;;1.30;;
21438;SDS011;10880;50.302;18.736;2023-08-31T11:59:12;1.20;;;1.20;;
21438;SDS011;10880;50.302;18.736;2023-08-31T12:01:42;1.23;;;1.17;;
21438;SDS011;10880;50.302;18.736;2023-08-31T12:06:51;1.63;;;1.37;;
21438;SDS011;10880;50.302;18.736;2023-08-31T12:09:21;1.20;;;1.20;;
21438;SDS011;10880;50.302;18.736;2023-08-31T12:11:49;1.20;;;1.20;;
21438;SDS011;10880;50.302;18.736;2023-08-31T12:14:21;1.03;;;1.03;;
21438;SDS011;10880;50.302;18.736;2023-08-31T12:16:52;1.03;;;1.03;;
21438;SDS011;10880;50.302;18.736;2023-08-31T12:19:29;1.10;;;1.10;;
21438;SDS011;10880;50.302;18.736;2023-08-31T12:21:57;1.10;;;1.10;;
21438;SDS011;10880;50.302;18.736;2023-08-31T12:24:24;1.00;;;1.00;;
21438;SDS011;10880;50.302;18.736;2023-08-31T12:26:51;1.27;;;1.20;;
21438;SDS011;10880;50.302;18.736;2023-08-31T12:29:23;1.30;;;1.20;;
21438;SDS011;10880;50.302;18.736;2023-08-31T12:31:49;1.40;;;1.30;;
21438;SDS011;10880;50.302;18.736;2023-08-31T12:34:17;1.20;;;1.20;;
21438;SDS011;10880;50.302;18.736;2023-08-31T12:36:44;1.10;;;1.10;;
21438;SDS011;10880;50.302;18.736;2023-08-31T12:39:15;1.20;;;1.20;;
21438;SDS011;10880;50.302;18.736;2023-08-31T12:41:50;1.30;;;1.20;;
21438;SDS011;10880;50.302;18.736;2023-08-31T12:44:17;1.30;;;1.20;;
21438;SDS011;10880;50.302;18.736;2023-08-31T12:46:43;2.00;;;1.20;;
21438;SDS011;10880;50.302;18.736;2023-08-31T12:49:10;1.23;;;1.20;;
21438;SDS011;10880;50.302;18.736;2023-08-31T12:51:37;1.27;;;1.27;;
21438;SDS011;10880;50.302;18.736;2023-08-31T12:54:04;1.50;;;1.40;;
21438;SDS011;10880;50.302;18.736;2023-08-31T12:56:31;1.53;;;1.40;;
21438;SDS011;10880;50.302;18.736;2023-08-31T12:58:58;1.20;;;1.20;;
21438;SDS011;10880;50.302;18.736;2023-08-31T13:01:24;1.10;;;1.10;;
21438;SDS011;10880;50.302;18.736;2023-08-31T13:03:52;1.17;;;1.17;;
21438;SDS011;10880;50.302;18.736;2023-08-31T13:06:18;1.37;;;1.30;;
21438;SDS011;10880;50.302;18.736;2023-08-31T13:08:45;1.20;;;1.20;;
21438;SDS011;10880;50.302;18.736;2023-08-31T13:11:12;1.10;;;1.10;;
21438;SDS011;10880;50.302;18.736;2023-08-31T13:13:39;1.40;;;1.30;;
21438;SDS011;10880;50.302;18.736;2023-08-31T13:16:06;1.40;;;1.30;;
21438;SDS011;10880;50.302;18.736;2023-08-31T13:18:32;1.50;;;1.40;;
21438;SDS011;10880;50.302;18.736;2023-08-31T13:20:59;1.30;;;1.20;;
21438;SDS011;10880;50.302;18.736;2023-08-31T13:23:26;1.50;;;1.40;;
21438;SDS011;10880;50.302;18.736;2023-08-31T13:25:53;1.33;;;1.23;;
21438;SDS011;10880;50.302;18.736;2023-08-31T13:28:21;1.10;;;1.10;;
21438;SDS011;10880;50.302;18.736;2023-08-31T13:30:48;1.50;;;1.40;;
21438;SDS011;10880;50.302;18.736;2023-08-31T13:33:20;1.20;;;1.20;;
21438;SDS011;10880;50.302;18.736;2023-08-31T13:35:47;1.37;;;1.20;;
21438;SDS011;10880;50.302;18.736;2023-08-31T13:38:26;1.80;;;1.30;;
21438;SDS011;10880;50.302;18.736;2023-08-31T13:40:55;1.00;;;1.00;;
21438;SDS011;10880;50.302;18.736;2023-08-31T13:43:22;1.60;;;1.30;;
21438;SDS011;10880;50.302;18.736;2023-08-31T13:45:54;1.20;;;1.20;;
21438;SDS011;10880;50.302;18.736;2023-08-31T13:48:21;1.37;;;1.27;;
21438;SDS011;10880;50.302;18.736;2023-08-31T13:50:48;1.37;;;1.33;;
21438;SDS011;10880;50.302;18.736;2023-08-31T13:53:15;1.40;;;1.30;;
21438;SDS011;10880;50.302;18.736;2023-08-31T13:55:43;1.33;;;1.30;;
21438;SDS011;10880;50.302;18.736;2023-08-31T13:58:10;1.50;;;1.40;;
21438;SDS011;10880;50.302;18.736;2023-08-31T14:00:39;1.50;;;1.40;;
21438;SDS011;10880;50.302;18.736;2023-08-31T14:03:06;1.77;;;1.47;;
21438;SDS011;10880;50.302;18.736;2023-08-31T14:05:33;1.53;;;1.43;;
21438;SDS011;10880;50.302;18.736;2023-08-31T14:08:01;1.13;;;1.13;;
21438;SDS011;10880;50.302;18.736;2023-08-31T14:10:30;1.10;;;1.10;;
21438;SDS011;10880;50.302;18.736;2023-08-31T14:13:00;1.30;;;1.30;;
21438;SDS011;10880;50.302;18.736;2023-08-31T14:15:33;1.97;;;1.60;;
21438;SDS011;10880;50.302;18.736;2023-08-31T14:18:00;1.60;;;1.40;;
21438;SDS011;10880;50.302;18.736;2023-08-31T14:20:27;1.60;;;1.50;;
21438;SDS011;10880;50.302;18.736;2023-08-31T14:22:54;1.40;;;1.30;;
21438;SDS011;10880;50.302;18.736;2023-08-31T14:25:21;1.57;;;1.47;;
21438;SDS011;10880;50.302;18.736;2023-08-31T14:27:50;1.20;;;1.20;;
21438;SDS011;10880;50.302;18.736;2023-08-31T14:30:17;1.40;;;1.30;;
21438;SDS011;10880;50.302;18.736;2023-08-31T14:32:43;1.33;;;1.23;;
21438;SDS011;10880;50.302;18.736;2023-08-31T14:35:11;1.47;;;1.37;;
21438;SDS011;10880;50.302;18.736;2023-08-31T14:37:37;3.83;;;1.37;;
21438;SDS011;10880;50.302;18.736;2023-08-31T14:40:05;1.50;;;1.40;;
21438;SDS011;10880;50.302;18.736;2023-08-31T14:42:33;1.07;;;1.07;;
21438;SDS011;10880;50.302;18.736;2023-08-31T14:45:01;1.30;;;1.20;;
21438;SDS011;10880;50.302;18.736;2023-08-31T14:47:29;1.30;;;1.20;;
21438;SDS011;10880;50.302;18.736;2023-08-31T14:49:59;1.10;;;1.10;;
21438;SDS011;10880;50.302;18.736;2023-08-31T14:52:26;1.10;;;1.10;;
21438;SDS011;10880;50.302;18.736;2023-08-31T14:54:57;1.00;;;1.00;;
21438;SDS011;10880;50.302;18.736;2023-08-31T14:57:25;1.10;;;1.10;;